sensor_id;sensor_type;location;lat;lon;timestamp;pressure;altitude;pressure_sealevel;temperature
41593;BMP180;28026;48.562;14.440;2023-05-13T00:01:47;93728.00;;;16.50
41593;BMP180;28026;48.562;14.440;2023-05-13T00:04:18;93741.00;;;16.50
41593;BMP180;28026;48.562;14.440;2023-05-13T00:06:48;93742.00;;;16.60
41593;BMP180;28026;48.562;14.440;2023-05-13T00:09:20;93733.00;;;16.60
41593;BMP180;28026;48.562;14.440;2023-05-13T00:11:50;93736.00;;;16.60
41593;BMP180;28026;48.562;14.440;2023-05-13T00:14:21;93732.00;;;16.60
41593;BMP180;28026;48.562;14.440;2023-05-13T00:16:52;93726.00;;;16.60
41593;BMP180;28026;48.562;14.440;2023-05-13T00:19:23;93729.00;;;16.50
41593;BMP180;28026;48.562;14.440;2023-05-13T00:21:53;93730.00;;;16.50
41593;BMP180;28026;48.562;14.440;2023-05-13T00:24:24;93724.00;;;16.50
41593;BMP180;28026;48.562;14.440;2023-05-13T00:26:55;93729.00;;;16.50
41593;BMP180;28026;48.562;14.440;2023-05-13T00:29:26;93732.00;;;16.40
41593;BMP180;28026;48.562;14.440;2023-05-13T00:31:56;93726.00;;;16.50
41593;BMP180;28026;48.562;14.440;2023-05-13T00:34:27;93721.00;;;16.40
41593;BMP180;28026;48.562;14.440;2023-05-13T00:36:58;93716.00;;;16.40
41593;BMP180;28026;48.562;14.440;2023-05-13T00:39:30;93720.00;;;16.40
41593;BMP180;28026;48.562;14.440;2023-05-13T00:42:01;93707.00;;;16.40
41593;BMP180;28026;48.562;14.440;2023-05-13T00:44:34;93721.00;;;16.40
41593;BMP180;28026;48.562;14.440;2023-05-13T00:47:05;93715.00;;;16.50
41593;BMP180;28026;48.562;14.440;2023-05-13T00:49:36;93722.00;;;16.50
41593;BMP180;28026;48.562;14.440;2023-05-13T00:52:07;93720.00;;;16.50
41593;BMP180;28026;48.562;14.440;2023-05-13T00:54:38;93719.00;;;16.50
41593;BMP180;28026;48.562;14.440;2023-05-13T00:57:09;93721.00;;;16.50
41593;BMP180;28026;48.562;14.440;2023-05-13T00:59:40;93721.00;;;16.50
41593;BMP180;28026;48.562;14.440;2023-05-13T01:02:37;93726.00;;;16.60
41593;BMP180;28026;48.562;14.440;2023-05-13T01:05:36;93719.00;;;16.50
41593;BMP180;28026;48.562;14.440;2023-05-13T01:11:42;93712.00;;;16.50
41593;BMP180;28026;48.562;14.440;2023-05-13T01:14:22;93711.00;;;16.60
41593;BMP180;28026;48.562;14.440;2023-05-13T01:17:19;93721.00;;;16.60
41593;BMP180;28026;48.562;14.440;2023-05-13T01:19:59;93722.00;;;16.60
41593;BMP180;28026;48.562;14.440;2023-05-13T01:22:34;93723.00;;;16.60
41593;BMP180;28026;48.562;14.440;2023-05-13T01:25:05;93724.00;;;16.70
41593;BMP180;28026;48.562;14.440;2023-05-13T01:27:36;93723.00;;;16.60
41593;BMP180;28026;48.562;14.440;2023-05-13T01:30:08;93719.00;;;16.60
41593;BMP180;28026;48.562;14.440;2023-05-13T01:32:40;93714.00;;;16.60
41593;BMP180;28026;48.562;14.440;2023-05-13T01:35:11;93714.00;;;16.60
41593;BMP180;28026;48.562;14.440;2023-05-13T01:37:43;93713.00;;;16.50
41593;BMP180;28026;48.562;14.440;2023-05-13T01:40:15;93711.00;;;16.50
41593;BMP180;28026;48.562;14.440;2023-05-13T01:42:46;93717.00;;;16.50
41593;BMP180;28026;48.562;14.440;2023-05-13T01:45:17;93700.00;;;16.50
41593;BMP180;28026;48.562;14.440;2023-05-13T01:47:47;93711.00;;;16.50
41593;BMP180;28026;48.562;14.440;2023-05-13T01:50:18;93707.00;;;16.50
41593;BMP180;28026;48.562;14.440;2023-05-13T01:52:49;93713.00;;;16.50
41593;BMP180;28026;48.562;14.440;2023-05-13T01:55:20;93707.00;;;16.50
41593;BMP180;28026;48.562;14.440;2023-05-13T01:57:50;93712.00;;;16.40
41593;BMP180;28026;48.562;14.440;2023-05-13T02:00:21;93717.00;;;16.40
41593;BMP180;28026;48.562;14.440;2023-05-13T02:02:52;93714.00;;;16.40
41593;BMP180;28026;48.562;14.440;2023-05-13T02:05:23;93712.00;;;16.40
41593;BMP180;28026;48.562;14.440;2023-05-13T02:07:54;93718.00;;;16.30
41593;BMP180;28026;48.562;14.440;2023-05-13T02:10:24;93713.00;;;16.30
41593;BMP180;28026;48.562;14.440;2023-05-13T02:12:55;93717.00;;;16.30
41593;BMP180;28026;48.562;14.440;2023-05-13T02:15:26;93722.00;;;16.30
41593;BMP180;28026;48.562;14.440;2023-05-13T02:17:57;93718.00;;;16.30
41593;BMP180;28026;48.562;14.440;2023-05-13T02:20:28;93719.00;;;16.30
41593;BMP180;28026;48.562;14.440;2023-05-13T02:22:59;93718.00;;;16.30
41593;BMP180;28026;48.562;14.440;2023-05-13T02:25:29;93715.00;;;16.30
41593;BMP180;28026;48.562;14.440;2023-05-13T02:28:00;93719.00;;;16.20
41593;BMP180;28026;48.562;14.440;2023-05-13T02:30:31;93716.00;;;16.20
41593;BMP180;28026;48.562;14.440;2023-05-13T02:33:02;93717.00;;;16.20
41593;BMP180;28026;48.562;14.440;2023-05-13T02:35:33;93719.00;;;16.20
41593;BMP180;28026;48.562;14.440;2023-05-13T02:38:03;93724.00;;;16.20
41593;BMP180;28026;48.562;14.440;2023-05-13T02:40:34;93711.00;;;16.20
41593;BMP180;28026;48.562;14.440;2023-05-13T02:43:06;93720.00;;;16.20
41593;BMP180;28026;48.562;14.440;2023-05-13T02:45:39;93720.00;;;16.20
41593;BMP180;28026;48.562;14.440;2023-05-13T02:48:10;93715.00;;;16.10
41593;BMP180;28026;48.562;14.440;2023-05-13T02:50:41;93722.00;;;16.10
41593;BMP180;28026;48.562;14.440;2023-05-13T02:53:12;93715.00;;;16.10
41593;BMP180;28026;48.562;14.440;2023-05-13T02:55:43;93714.00;;;16.10
41593;BMP180;28026;48.562;14.440;2023-05-13T02:58:14;93716.00;;;16.10
41593;BMP180;28026;48.562;14.440;2023-05-13T03:00:46;93716.00;;;16.10
41593;BMP180;28026;48.562;14.440;2023-05-13T03:03:17;93712.00;;;16.10
41593;BMP180;28026;48.562;14.440;2023-05-13T03:05:48;93720.00;;;16.10
41593;BMP180;28026;48.562;14.440;2023-05-13T03:08:18;93719.00;;;16.10
41593;BMP180;28026;48.562;14.440;2023-05-13T03:10:49;93717.00;;;16.00
41593;BMP180;28026;48.562;14.440;2023-05-13T03:13:20;93717.00;;;16.10
41593;BMP180;28026;48.562;14.440;2023-05-13T03:15:51;93715.00;;;16.10
41593;BMP180;28026;48.562;14.440;2023-05-13T03:18:22;93712.00;;;16.00
41593;BMP180;28026;48.562;14.440;2023-05-13T03:20:53;93713.00;;;16.00
41593;BMP180;28026;48.562;14.440;2023-05-13T03:23:23;93715.00;;;16.10
41593;BMP180;28026;48.562;14.440;2023-05-13T03:25:54;93711.00;;;16.10
41593;BMP180;28026;48.562;14.440;2023-05-13T03:28:25;93714.00;;;16.10
41593;BMP180;28026;48.562;14.440;2023-05-13T03:30:56;93721.00;;;16.10
41593;BMP180;28026;48.562;14.440;2023-05-13T03:33:27;93710.00;;;16.10
41593;BMP180;28026;48.562;14.440;2023-05-13T03:35:59;93723.00;;;16.10
41593;BMP180;28026;48.562;14.440;2023-05-13T03:38:29;93710.00;;;16.10
41593;BMP180;28026;48.562;14.440;2023-05-13T03:41:00;93710.00;;;16.10
41593;BMP180;28026;48.562;14.440;2023-05-13T03:43:31;93716.00;;;16.10
41593;BMP180;28026;48.562;14.440;2023-05-13T03:46:02;93720.00;;;16.10
41593;BMP180;28026;48.562;14.440;2023-05-13T03:48:33;93723.00;;;16.10
41593;BMP180;28026;48.562;14.440;2023-05-13T03:51:04;93722.00;;;16.10
41593;BMP180;28026;48.562;14.440;2023-05-13T03:53:34;93721.00;;;16.10
41593;BMP180;28026;48.562;14.440;2023-05-13T03:56:05;93704.00;;;16.10
41593;BMP180;28026;48.562;14.440;2023-05-13T03:58:36;93725.00;;;16.10
41593;BMP180;28026;48.562;14.440;2023-05-13T04:01:07;93710.00;;;16.20
41593;BMP180;28026;48.562;14.440;2023-05-13T04:03:38;93731.00;;;16.20
41593;BMP180;28026;48.562;14.440;2023-05-13T04:06:11;93730.00;;;16.20
41593;BMP180;28026;48.562;14.440;2023-05-13T04:08:43;93731.00;;;16.20
41593;BMP180;28026;48.562;14.440;2023-05-13T04:11:14;93733.00;;;16.20
41593;BMP180;28026;48.562;14.440;2023-05-13T04:13:45;93720.00;;;16.20
41593;BMP180;28026;48.562;14.440;2023-05-13T04:16:15;93727.00;;;16.20
41593;BMP180;28026;48.562;14.440;2023-05-13T04:18:46;93731.00;;;16.30
41593;BMP180;28026;48.562;14.440;2023-05-13T04:21:17;93741.00;;;16.30
41593;BMP180;28026;48.562;14.440;2023-05-13T04:23:48;93742.00;;;16.30
41593;BMP180;28026;48.562;14.440;2023-05-13T04:26:19;93746.00;;;16.30
41593;BMP180;28026;48.562;14.440;2023-05-13T04:28:51;93751.00;;;16.30
41593;BMP180;28026;48.562;14.440;2023-05-13T04:31:22;93755.00;;;16.40
41593;BMP180;28026;48.562;14.440;2023-05-13T04:33:53;93755.00;;;16.40
41593;BMP180;28026;48.562;14.440;2023-05-13T04:36:23;93755.00;;;16.40
41593;BMP180;28026;48.562;14.440;2023-05-13T04:38:54;93757.00;;;16.50
41593;BMP180;28026;48.562;14.440;2023-05-13T04:41:25;93755.00;;;16.50
41593;BMP180;28026;48.562;14.440;2023-05-13T04:43:56;93755.00;;;16.50
41593;BMP180;28026;48.562;14.440;2023-05-13T04:46:27;93755.00;;;16.50
41593;BMP180;28026;48.562;14.440;2023-05-13T04:48:57;93750.00;;;16.50
41593;BMP180;28026;48.562;14.440;2023-05-13T04:51:28;93765.00;;;16.50
41593;BMP180;28026;48.562;14.440;2023-05-13T04:53:59;93769.00;;;16.50
41593;BMP180;28026;48.562;14.440;2023-05-13T04:56:30;93772.00;;;16.50
41593;BMP180;28026;48.562;14.440;2023-05-13T04:59:01;93775.00;;;16.60
41593;BMP180;28026;48.562;14.440;2023-05-13T05:01:31;93771.00;;;16.60
41593;BMP180;28026;48.562;14.440;2023-05-13T05:04:02;93774.00;;;16.60
41593;BMP180;28026;48.562;14.440;2023-05-13T05:06:34;93772.00;;;16.70
41593;BMP180;28026;48.562;14.440;2023-05-13T05:09:05;93776.00;;;16.70
41593;BMP180;28026;48.562;14.440;2023-05-13T05:11:37;93774.00;;;16.80
41593;BMP180;28026;48.562;14.440;2023-05-13T05:14:08;93778.00;;;16.80
41593;BMP180;28026;48.562;14.440;2023-05-13T05:16:38;93772.00;;;16.90
41593;BMP180;28026;48.562;14.440;2023-05-13T05:19:09;93773.00;;;16.90
41593;BMP180;28026;48.562;14.440;2023-05-13T05:21:40;93784.00;;;17.00
41593;BMP180;28026;48.562;14.440;2023-05-13T05:24:11;93773.00;;;17.10
41593;BMP180;28026;48.562;14.440;2023-05-13T05:26:41;93783.00;;;17.10
41593;BMP180;28026;48.562;14.440;2023-05-13T05:29:12;93788.00;;;17.20
41593;BMP180;28026;48.562;14.440;2023-05-13T05:31:43;93793.00;;;17.20
41593;BMP180;28026;48.562;14.440;2023-05-13T05:34:14;93793.00;;;17.30
41593;BMP180;28026;48.562;14.440;2023-05-13T05:36:45;93795.00;;;17.40
41593;BMP180;28026;48.562;14.440;2023-05-13T05:39:16;93778.00;;;17.40
41593;BMP180;28026;48.562;14.440;2023-05-13T05:41:47;93785.00;;;17.40
41593;BMP180;28026;48.562;14.440;2023-05-13T05:44:18;93789.00;;;17.40
41593;BMP180;28026;48.562;14.440;2023-05-13T05:46:48;93785.00;;;17.40
41593;BMP180;28026;48.562;14.440;2023-05-13T05:49:19;93783.00;;;17.40
41593;BMP180;28026;48.562;14.440;2023-05-13T05:51:50;93781.00;;;17.40
41593;BMP180;28026;48.562;14.440;2023-05-13T05:54:21;93774.00;;;17.50
41593;BMP180;28026;48.562;14.440;2023-05-13T05:56:51;93789.00;;;17.60
41593;BMP180;28026;48.562;14.440;2023-05-13T05:59:22;93785.00;;;17.70
41593;BMP180;28026;48.562;14.440;2023-05-13T06:01:53;93772.00;;;17.80
41593;BMP180;28026;48.562;14.440;2023-05-13T06:04:24;93781.00;;;17.90
41593;BMP180;28026;48.562;14.440;2023-05-13T06:06:54;93781.00;;;18.00
41593;BMP180;28026;48.562;14.440;2023-05-13T06:09:25;93780.00;;;18.00
41593;BMP180;28026;48.562;14.440;2023-05-13T06:11:56;93787.00;;;18.10
41593;BMP180;28026;48.562;14.440;2023-05-13T06:14:27;93781.00;;;18.10
41593;BMP180;28026;48.562;14.440;2023-05-13T06:16:57;93789.00;;;18.20
41593;BMP180;28026;48.562;14.440;2023-05-13T06:19:28;93784.00;;;18.30
41593;BMP180;28026;48.562;14.440;2023-05-13T06:21:59;93783.00;;;18.40
41593;BMP180;28026;48.562;14.440;2023-05-13T06:24:30;93787.00;;;18.40
41593;BMP180;28026;48.562;14.440;2023-05-13T06:27:01;93780.00;;;18.60
41593;BMP180;28026;48.562;14.440;2023-05-13T06:29:32;93792.00;;;18.60
41593;BMP180;28026;48.562;14.440;2023-05-13T06:32:03;93793.00;;;18.60
41593;BMP180;28026;48.562;14.440;2023-05-13T06:34:34;93789.00;;;18.60
41593;BMP180;28026;48.562;14.440;2023-05-13T06:37:05;93790.00;;;18.60
41593;BMP180;28026;48.562;14.440;2023-05-13T06:39:36;93803.00;;;18.60
41593;BMP180;28026;48.562;14.440;2023-05-13T06:42:07;93793.00;;;18.60
41593;BMP180;28026;48.562;14.440;2023-05-13T06:44:38;93800.00;;;18.60
41593;BMP180;28026;48.562;14.440;2023-05-13T06:47:09;93806.00;;;18.60
41593;BMP180;28026;48.562;14.440;2023-05-13T06:49:44;93798.00;;;18.60
41593;BMP180;28026;48.562;14.440;2023-05-13T06:52:14;93807.00;;;18.60
41593;BMP180;28026;48.562;14.440;2023-05-13T06:54:45;93802.00;;;18.70
41593;BMP180;28026;48.562;14.440;2023-05-13T06:57:16;93802.00;;;18.80
41593;BMP180;28026;48.562;14.440;2023-05-13T06:59:47;93806.00;;;18.80
41593;BMP180;28026;48.562;14.440;2023-05-13T07:02:18;93804.00;;;19.00
41593;BMP180;28026;48.562;14.440;2023-05-13T07:04:48;93804.00;;;19.00
41593;BMP180;28026;48.562;14.440;2023-05-13T07:07:19;93811.00;;;18.90
41593;BMP180;28026;48.562;14.440;2023-05-13T07:09:50;93809.00;;;18.90
41593;BMP180;28026;48.562;14.440;2023-05-13T07:12:21;93817.00;;;18.70
41593;BMP180;28026;48.562;14.440;2023-05-13T07:14:51;93804.00;;;18.60
41593;BMP180;28026;48.562;14.440;2023-05-13T07:17:22;93819.00;;;18.60
41593;BMP180;28026;48.562;14.440;2023-05-13T07:19:53;93825.00;;;18.60
41593;BMP180;28026;48.562;14.440;2023-05-13T07:22:24;93817.00;;;18.60
41593;BMP180;28026;48.562;14.440;2023-05-13T07:24:55;93822.00;;;18.60
41593;BMP180;28026;48.562;14.440;2023-05-13T07:27:26;93827.00;;;18.60
41593;BMP180;28026;48.562;14.440;2023-05-13T07:29:57;93821.00;;;18.60
41593;BMP180;28026;48.562;14.440;2023-05-13T07:32:28;93828.00;;;18.50
41593;BMP180;28026;48.562;14.440;2023-05-13T07:35:00;93819.00;;;18.50
41593;BMP180;28026;48.562;14.440;2023-05-13T07:37:30;93829.00;;;18.50
41593;BMP180;28026;48.562;14.440;2023-05-13T07:40:03;93835.00;;;18.50
41593;BMP180;28026;48.562;14.440;2023-05-13T07:42:35;93839.00;;;18.50
41593;BMP180;28026;48.562;14.440;2023-05-13T07:45:07;93833.00;;;18.50
41593;BMP180;28026;48.562;14.440;2023-05-13T07:47:38;93827.00;;;18.50
41593;BMP180;28026;48.562;14.440;2023-05-13T07:50:09;93825.00;;;18.50
41593;BMP180;28026;48.562;14.440;2023-05-13T07:52:40;93823.00;;;18.50
41593;BMP180;28026;48.562;14.440;2023-05-13T07:55:11;93832.00;;;18.50
41593;BMP180;28026;48.562;14.440;2023-05-13T07:57:42;93835.00;;;18.70
41593;BMP180;28026;48.562;14.440;2023-05-13T08:00:13;93836.00;;;18.70
41593;BMP180;28026;48.562;14.440;2023-05-13T08:02:45;93841.00;;;18.80
41593;BMP180;28026;48.562;14.440;2023-05-13T08:05:15;93834.00;;;18.90
41593;BMP180;28026;48.562;14.440;2023-05-13T08:07:46;93829.00;;;19.00
41593;BMP180;28026;48.562;14.440;2023-05-13T08:10:17;93828.00;;;19.10
41593;BMP180;28026;48.562;14.440;2023-05-13T08:12:48;93829.00;;;19.20
41593;BMP180;28026;48.562;14.440;2023-05-13T08:15:20;93834.00;;;19.50
41593;BMP180;28026;48.562;14.440;2023-05-13T08:17:51;93839.00;;;19.60
41593;BMP180;28026;48.562;14.440;2023-05-13T08:20:23;93832.00;;;19.80
41593;BMP180;28026;48.562;14.440;2023-05-13T08:22:58;93840.00;;;19.80
41593;BMP180;28026;48.562;14.440;2023-05-13T08:25:31;93842.00;;;19.70
41593;BMP180;28026;48.562;14.440;2023-05-13T08:28:02;93841.00;;;19.70
41593;BMP180;28026;48.562;14.440;2023-05-13T08:30:33;93838.00;;;19.80
41593;BMP180;28026;48.562;14.440;2023-05-13T08:33:03;93833.00;;;19.90
41593;BMP180;28026;48.562;14.440;2023-05-13T08:35:34;93841.00;;;19.90
41593;BMP180;28026;48.562;14.440;2023-05-13T08:38:05;93842.00;;;20.00
41593;BMP180;28026;48.562;14.440;2023-05-13T08:40:36;93837.00;;;20.10
41593;BMP180;28026;48.562;14.440;2023-05-13T08:43:07;93842.00;;;20.10
41593;BMP180;28026;48.562;14.440;2023-05-13T08:45:41;93842.00;;;20.10
41593;BMP180;28026;48.562;14.440;2023-05-13T08:48:15;93841.00;;;20.10
41593;BMP180;28026;48.562;14.440;2023-05-13T08:50:49;93834.00;;;20.20
41593;BMP180;28026;48.562;14.440;2023-05-13T08:53:21;93841.00;;;20.40
41593;BMP180;28026;48.562;14.440;2023-05-13T08:55:55;93840.00;;;20.50
41593;BMP180;28026;48.562;14.440;2023-05-13T08:58:26;93838.00;;;20.60
41593;BMP180;28026;48.562;14.440;2023-05-13T09:00:57;93837.00;;;20.50
41593;BMP180;28026;48.562;14.440;2023-05-13T09:03:29;93842.00;;;20.40
41593;BMP180;28026;48.562;14.440;2023-05-13T09:06:02;93843.00;;;20.50
41593;BMP180;28026;48.562;14.440;2023-05-13T09:08:33;93842.00;;;20.50
41593;BMP180;28026;48.562;14.440;2023-05-13T09:11:04;93846.00;;;20.50
41593;BMP180;28026;48.562;14.440;2023-05-13T09:13:35;93836.00;;;20.70
41593;BMP180;28026;48.562;14.440;2023-05-13T09:16:06;93831.00;;;20.80
41593;BMP180;28026;48.562;14.440;2023-05-13T09:18:37;93830.00;;;20.70
41593;BMP180;28026;48.562;14.440;2023-05-13T09:21:22;93830.00;;;20.80
41593;BMP180;28026;48.562;14.440;2023-05-13T09:24:15;93832.00;;;20.80
41593;BMP180;28026;48.562;14.440;2023-05-13T09:26:50;93833.00;;;20.90
41593;BMP180;28026;48.562;14.440;2023-05-13T09:29:26;93829.00;;;21.00
41593;BMP180;28026;48.562;14.440;2023-05-13T09:32:00;93829.00;;;21.10
41593;BMP180;28026;48.562;14.440;2023-05-13T09:34:33;93829.00;;;21.30
41593;BMP180;28026;48.562;14.440;2023-05-13T09:37:06;93827.00;;;21.40
41593;BMP180;28026;48.562;14.440;2023-05-13T09:39:39;93826.00;;;21.70
41593;BMP180;28026;48.562;14.440;2023-05-13T09:42:15;93826.00;;;21.80
41593;BMP180;28026;48.562;14.440;2023-05-13T09:44:47;93825.00;;;21.80
41593;BMP180;28026;48.562;14.440;2023-05-13T09:47:19;93824.00;;;21.70
41593;BMP180;28026;48.562;14.440;2023-05-13T09:49:54;93827.00;;;21.90
41593;BMP180;28026;48.562;14.440;2023-05-13T09:52:29;93828.00;;;22.10
41593;BMP180;28026;48.562;14.440;2023-05-13T09:55:02;93822.00;;;22.10
41593;BMP180;28026;48.562;14.440;2023-05-13T09:57:38;93825.00;;;22.40
41593;BMP180;28026;48.562;14.440;2023-05-13T10:00:10;93821.00;;;22.70
41593;BMP180;28026;48.562;14.440;2023-05-13T10:02:41;93820.00;;;22.90
41593;BMP180;28026;48.562;14.440;2023-05-13T10:05:12;93823.00;;;23.40
41593;BMP180;28026;48.562;14.440;2023-05-13T10:07:43;93823.00;;;23.90
41593;BMP180;28026;48.562;14.440;2023-05-13T10:10:14;93821.00;;;23.90
41593;BMP180;28026;48.562;14.440;2023-05-13T10:12:45;93828.00;;;23.70
41593;BMP180;28026;48.562;14.440;2023-05-13T10:15:17;93816.00;;;23.40
41593;BMP180;28026;48.562;14.440;2023-05-13T10:17:49;93827.00;;;23.10
41593;BMP180;28026;48.562;14.440;2023-05-13T10:20:20;93822.00;;;23.00
41593;BMP180;28026;48.562;14.440;2023-05-13T10:22:53;93830.00;;;23.10
41593;BMP180;28026;48.562;14.440;2023-05-13T10:25:25;93832.00;;;23.50
41593;BMP180;28026;48.562;14.440;2023-05-13T10:27:57;93824.00;;;23.70
41593;BMP180;28026;48.562;14.440;2023-05-13T10:30:31;93829.00;;;23.80
41593;BMP180;28026;48.562;14.440;2023-05-13T10:33:05;93824.00;;;23.80
41593;BMP180;28026;48.562;14.440;2023-05-13T10:35:38;93826.00;;;23.60
41593;BMP180;28026;48.562;14.440;2023-05-13T10:38:25;93827.00;;;23.60
41593;BMP180;28026;48.562;14.440;2023-05-13T10:44:43;93830.00;;;23.50
41593;BMP180;28026;48.562;14.440;2023-05-13T10:47:15;93831.00;;;23.60
41593;BMP180;28026;48.562;14.440;2023-05-13T10:49:52;93829.00;;;23.60
41593;BMP180;28026;48.562;14.440;2023-05-13T10:52:40;93833.00;;;23.60
41593;BMP180;28026;48.562;14.440;2023-05-13T10:55:17;93832.00;;;23.60
41593;BMP180;28026;48.562;14.440;2023-05-13T10:58:27;93827.00;;;23.50
41593;BMP180;28026;48.562;14.440;2023-05-13T11:01:16;93829.00;;;23.40
41593;BMP180;28026;48.562;14.440;2023-05-13T11:03:53;93835.00;;;23.30
41593;BMP180;28026;48.562;14.440;2023-05-13T11:09:14;93831.00;;;23.00
41593;BMP180;28026;48.562;14.440;2023-05-13T11:11:53;93833.00;;;22.80
41593;BMP180;28026;48.562;14.440;2023-05-13T11:14:29;93831.00;;;22.80
41593;BMP180;28026;48.562;14.440;2023-05-13T11:19:36;93829.00;;;22.80
41593;BMP180;28026;48.562;14.440;2023-05-13T11:22:21;93840.00;;;22.80
41593;BMP180;28026;48.562;14.440;2023-05-13T11:25:05;93838.00;;;22.80
41593;BMP180;28026;48.562;14.440;2023-05-13T11:27:40;93829.00;;;22.90
41593;BMP180;28026;48.562;14.440;2023-05-13T11:30:25;93844.00;;;22.80
41593;BMP180;28026;48.562;14.440;2023-05-13T11:32:57;93848.00;;;22.80
41593;BMP180;28026;48.562;14.440;2023-05-13T11:35:31;93838.00;;;23.00
41593;BMP180;28026;48.562;14.440;2023-05-13T11:38:02;93841.00;;;23.20
41593;BMP180;28026;48.562;14.440;2023-05-13T11:40:34;93853.00;;;23.10
41593;BMP180;28026;48.562;14.440;2023-05-13T11:43:08;93845.00;;;23.10
41593;BMP180;28026;48.562;14.440;2023-05-13T11:45:41;93847.00;;;23.20
41593;BMP180;28026;48.562;14.440;2023-05-13T11:48:20;93844.00;;;23.30
41593;BMP180;28026;48.562;14.440;2023-05-13T11:50:55;93834.00;;;23.40
41593;BMP180;28026;48.562;14.440;2023-05-13T11:53:26;93840.00;;;23.60
41593;BMP180;28026;48.562;14.440;2023-05-13T11:56:07;93840.00;;;23.60
41593;BMP180;28026;48.562;14.440;2023-05-13T11:58:40;93836.00;;;23.50
41593;BMP180;28026;48.562;14.440;2023-05-13T12:01:13;93842.00;;;23.40
41593;BMP180;28026;48.562;14.440;2023-05-13T12:03:44;93830.00;;;23.70
41593;BMP180;28026;48.562;14.440;2023-05-13T12:06:17;93850.00;;;23.80
41593;BMP180;28026;48.562;14.440;2023-05-13T12:08:47;93846.00;;;24.10
41593;BMP180;28026;48.562;14.440;2023-05-13T12:11:18;93842.00;;;24.10
41593;BMP180;28026;48.562;14.440;2023-05-13T12:13:49;93850.00;;;24.40
41593;BMP180;28026;48.562;14.440;2023-05-13T12:16:20;93848.00;;;24.40
41593;BMP180;28026;48.562;14.440;2023-05-13T12:18:58;93852.00;;;24.50
41593;BMP180;28026;48.562;14.440;2023-05-13T12:21:30;93848.00;;;24.90
41593;BMP180;28026;48.562;14.440;2023-05-13T12:24:15;93864.00;;;25.30
41593;BMP180;28026;48.562;14.440;2023-05-13T12:26:50;93852.00;;;25.50
41593;BMP180;28026;48.562;14.440;2023-05-13T12:29:21;93850.00;;;25.70
41593;BMP180;28026;48.562;14.440;2023-05-13T12:32:05;93857.00;;;25.80
41593;BMP180;28026;48.562;14.440;2023-05-13T12:34:36;93860.00;;;25.70
41593;BMP180;28026;48.562;14.440;2023-05-13T12:37:12;93855.00;;;25.60
41593;BMP180;28026;48.562;14.440;2023-05-13T12:39:43;93850.00;;;25.60
41593;BMP180;28026;48.562;14.440;2023-05-13T12:42:17;93862.00;;;25.50
41593;BMP180;28026;48.562;14.440;2023-05-13T12:44:48;93859.00;;;25.40
41593;BMP180;28026;48.562;14.440;2023-05-13T12:47:19;93860.00;;;25.40
41593;BMP180;28026;48.562;14.440;2023-05-13T12:49:58;93858.00;;;25.40
41593;BMP180;28026;48.562;14.440;2023-05-13T12:52:29;93857.00;;;25.60
41593;BMP180;28026;48.562;14.440;2023-05-13T12:55:00;93865.00;;;25.70
41593;BMP180;28026;48.562;14.440;2023-05-13T12:57:31;93862.00;;;25.70
41593;BMP180;28026;48.562;14.440;2023-05-13T13:00:02;93865.00;;;25.90
41593;BMP180;28026;48.562;14.440;2023-05-13T13:02:33;93869.00;;;25.90
41593;BMP180;28026;48.562;14.440;2023-05-13T13:05:04;93865.00;;;26.20
41593;BMP180;28026;48.562;14.440;2023-05-13T13:07:35;93873.00;;;26.30
41593;BMP180;28026;48.562;14.440;2023-05-13T13:10:07;93867.00;;;26.50
41593;BMP180;28026;48.562;14.440;2023-05-13T13:12:38;93857.00;;;26.70
41593;BMP180;28026;48.562;14.440;2023-05-13T13:15:10;93858.00;;;26.70
41593;BMP180;28026;48.562;14.440;2023-05-13T13:17:41;93871.00;;;26.80
41593;BMP180;28026;48.562;14.440;2023-05-13T13:20:12;93876.00;;;26.90
41593;BMP180;28026;48.562;14.440;2023-05-13T13:22:43;93873.00;;;26.80
41593;BMP180;28026;48.562;14.440;2023-05-13T13:25:13;93874.00;;;26.30
41593;BMP180;28026;48.562;14.440;2023-05-13T13:27:44;93872.00;;;25.90
41593;BMP180;28026;48.562;14.440;2023-05-13T13:30:15;93868.00;;;25.90
41593;BMP180;28026;48.562;14.440;2023-05-13T13:32:46;93873.00;;;26.00
41593;BMP180;28026;48.562;14.440;2023-05-13T13:35:17;93873.00;;;26.10
41593;BMP180;28026;48.562;14.440;2023-05-13T13:37:48;93876.00;;;26.10
41593;BMP180;28026;48.562;14.440;2023-05-13T13:40:18;93882.00;;;26.30
41593;BMP180;28026;48.562;14.440;2023-05-13T13:42:50;93881.00;;;26.50
41593;BMP180;28026;48.562;14.440;2023-05-13T13:45:20;93870.00;;;26.60
41593;BMP180;28026;48.562;14.440;2023-05-13T13:47:53;93877.00;;;26.30
41593;BMP180;28026;48.562;14.440;2023-05-13T13:50:24;93885.00;;;26.10
41593;BMP180;28026;48.562;14.440;2023-05-13T13:52:55;93878.00;;;26.00
41593;BMP180;28026;48.562;14.440;2023-05-13T13:55:26;93888.00;;;25.70
41593;BMP180;28026;48.562;14.440;2023-05-13T13:57:56;93880.00;;;25.50
41593;BMP180;28026;48.562;14.440;2023-05-13T14:00:27;93880.00;;;25.70
41593;BMP180;28026;48.562;14.440;2023-05-13T14:02:58;93873.00;;;25.90
41593;BMP180;28026;48.562;14.440;2023-05-13T14:05:30;93874.00;;;26.00
41593;BMP180;28026;48.562;14.440;2023-05-13T14:08:01;93872.00;;;25.90
41593;BMP180;28026;48.562;14.440;2023-05-13T14:10:32;93869.00;;;25.80
41593;BMP180;28026;48.562;14.440;2023-05-13T14:13:04;93865.00;;;25.80
41593;BMP180;28026;48.562;14.440;2023-05-13T14:15:34;93872.00;;;25.80
41593;BMP180;28026;48.562;14.440;2023-05-13T14:18:08;93865.00;;;26.00
41593;BMP180;28026;48.562;14.440;2023-05-13T14:20:39;93870.00;;;26.00
41593;BMP180;28026;48.562;14.440;2023-05-13T14:23:09;93869.00;;;25.90
41593;BMP180;28026;48.562;14.440;2023-05-13T14:25:40;93876.00;;;25.90
41593;BMP180;28026;48.562;14.440;2023-05-13T14:28:11;93877.00;;;25.80
41593;BMP180;28026;48.562;14.440;2023-05-13T14:30:44;93878.00;;;25.50
41593;BMP180;28026;48.562;14.440;2023-05-13T14:33:15;93871.00;;;25.20
41593;BMP180;28026;48.562;14.440;2023-05-13T14:35:46;93877.00;;;25.10
41593;BMP180;28026;48.562;14.440;2023-05-13T14:38:16;93876.00;;;24.90